sensor_id;sensor_type;location;lat;lon;timestamp;pressure;altitude;pressure_sealevel;temperature;humidity
54806;BME280;62866;55.776;37.496;2023-07-13T00:00:12;98899.25;;;13.52;77.84
54806;BME280;62866;55.776;37.496;2023-07-13T00:02:40;98907.31;;;13.52;77.68
54806;BME280;62866;55.776;37.496;2023-07-13T00:05:06;98910.59;;;13.54;78.07
54806;BME280;62866;55.776;37.496;2023-07-13T00:07:31;98913.28;;;13.54;78.09
54806;BME280;62866;55.776;37.496;2023-07-13T00:09:57;98921.34;;;13.54;77.79
54806;BME280;62866;55.776;37.496;2023-07-13T00:12:33;98917.00;;;13.53;78.16
54806;BME280;62866;55.776;37.496;2023-07-13T00:15:01;98922.59;;;13.51;78.15
54806;BME280;62866;55.776;37.496;2023-07-13T00:17:28;98910.44;;;13.49;78.03
54806;BME280;62866;55.776;37.496;2023-07-13T00:19:54;98915.38;;;13.52;78.05
54806;BME280;62866;55.776;37.496;2023-07-13T00:22:21;98908.34;;;13.51;78.15
54806;BME280;62866;55.776;37.496;2023-07-13T00:24:47;98910.09;;;13.45;78.45
54806;BME280;62866;55.776;37.496;2023-07-13T00:27:13;98909.28;;;13.45;78.54
54806;BME280;62866;55.776;37.496;2023-07-13T00:29:39;98913.38;;;13.47;78.59
54806;BME280;62866;55.776;37.496;2023-07-13T00:32:06;98913.59;;;13.46;78.49
54806;BME280;62866;55.776;37.496;2023-07-13T00:34:32;98904.56;;;13.40;78.63
54806;BME280;62866;55.776;37.496;2023-07-13T00:36:58;98905.63;;;13.39;78.47
54806;BME280;62866;55.776;37.496;2023-07-13T00:39:24;98907.50;;;13.39;78.89
54806;BME280;62866;55.776;37.496;2023-07-13T00:41:50;98913.00;;;13.44;78.71
54806;BME280;62866;55.776;37.496;2023-07-13T00:44:18;98907.03;;;13.42;79.04
54806;BME280;62866;55.776;37.496;2023-07-13T00:46:44;98886.78;;;13.27;78.77
54806;BME280;62866;55.776;37.496;2023-07-13T00:49:13;98909.50;;;13.43;78.91
54806;BME280;62866;55.776;37.496;2023-07-13T00:51:46;98908.91;;;13.41;79.13
54806;BME280;62866;55.776;37.496;2023-07-13T00:54:18;98909.59;;;13.37;79.19
54806;BME280;62866;55.776;37.496;2023-07-13T00:56:47;98914.28;;;13.41;78.87
54806;BME280;62866;55.776;37.496;2023-07-13T00:59:15;98915.91;;;13.42;79.14
54806;BME280;62866;55.776;37.496;2023-07-13T01:01:43;98909.13;;;13.40;79.31
54806;BME280;62866;55.776;37.496;2023-07-13T01:04:09;98911.59;;;13.41;79.12
54806;BME280;62866;55.776;37.496;2023-07-13T01:06:36;98907.03;;;13.42;79.13
54806;BME280;62866;55.776;37.496;2023-07-13T01:09:02;98894.31;;;13.37;79.05
54806;BME280;62866;55.776;37.496;2023-07-13T01:11:28;98897.00;;;13.37;79.18
54806;BME280;62866;55.776;37.496;2023-07-13T01:13:53;98889.97;;;13.36;79.22
54806;BME280;62866;55.776;37.496;2023-07-13T01:16:27;98891.25;;;13.34;79.13
54806;BME280;62866;55.776;37.496;2023-07-13T01:18:54;98887.28;;;13.36;79.17
54806;BME280;62866;55.776;37.496;2023-07-13T01:21:24;98898.38;;;13.40;79.11
54806;BME280;62866;55.776;37.496;2023-07-13T01:23:49;98893.25;;;13.38;79.40
54806;BME280;62866;55.776;37.496;2023-07-13T01:26:15;98883.88;;;13.29;79.43
54806;BME280;62866;55.776;37.496;2023-07-13T01:28:40;98864.81;;;13.19;79.26
54806;BME280;62866;55.776;37.496;2023-07-13T01:31:06;98898.38;;;13.40;79.33
54806;BME280;62866;55.776;37.496;2023-07-13T01:33:31;98884.97;;;13.40;79.50
54806;BME280;62866;55.776;37.496;2023-07-13T01:35:57;98887.19;;;13.43;79.26
54806;BME280;62866;55.776;37.496;2023-07-13T01:38:23;98885.78;;;13.40;79.40
54806;BME280;62866;55.776;37.496;2023-07-13T01:40:49;98879.03;;;13.38;79.54
54806;BME280;62866;55.776;37.496;2023-07-13T01:43:15;98887.78;;;13.45;79.35
54806;BME280;62866;55.776;37.496;2023-07-13T01:45:41;98888.84;;;13.44;79.38
54806;BME280;62866;55.776;37.496;2023-07-13T01:48:09;98877.06;;;13.45;79.28
54806;BME280;62866;55.776;37.496;2023-07-13T01:50:34;98863.59;;;13.33;79.46
54806;BME280;62866;55.776;37.496;2023-07-13T01:53:00;98887.09;;;13.49;79.25
54806;BME280;62866;55.776;37.496;2023-07-13T01:55:25;98872.34;;;13.40;79.24
54806;BME280;62866;55.776;37.496;2023-07-13T01:57:51;98883.84;;;13.47;79.28
54806;BME280;62866;55.776;37.496;2023-07-13T02:00:17;98876.13;;;13.51;79.49
54806;BME280;62866;55.776;37.496;2023-07-13T02:02:43;98884.78;;;13.53;79.07
54806;BME280;62866;55.776;37.496;2023-07-13T02:05:10;98860.72;;;13.46;79.55
54806;BME280;62866;55.776;37.496;2023-07-13T02:07:35;98871.94;;;13.55;79.39
54806;BME280;62866;55.776;37.496;2023-07-13T02:10:01;98852.50;;;13.41;79.31
54806;BME280;62866;55.776;37.496;2023-07-13T02:12:26;98871.03;;;13.61;78.93
54806;BME280;62866;55.776;37.496;2023-07-13T02:14:52;98866.25;;;13.63;79.00
54806;BME280;62866;55.776;37.496;2023-07-13T02:17:17;98865.75;;;13.66;78.92
54806;BME280;62866;55.776;37.496;2023-07-13T02:19:43;98865.53;;;13.67;78.80
54806;BME280;62866;55.776;37.496;2023-07-13T02:22:08;98861.69;;;13.63;79.16
54806;BME280;62866;55.776;37.496;2023-07-13T02:24:34;98861.59;;;13.70;78.77
54806;BME280;62866;55.776;37.496;2023-07-13T02:26:59;98871.28;;;13.71;78.80
54806;BME280;62866;55.776;37.496;2023-07-13T02:29:25;98860.66;;;13.76;79.01
54806;BME280;62866;55.776;37.496;2023-07-13T02:31:50;98857.97;;;13.76;78.58
54806;BME280;62866;55.776;37.496;2023-07-13T02:34:16;98851.19;;;13.74;78.62
54806;BME280;62866;55.776;37.496;2023-07-13T02:36:41;98853.41;;;13.77;78.72
54806;BME280;62866;55.776;37.496;2023-07-13T02:39:08;98843.81;;;13.69;78.78
54806;BME280;62866;55.776;37.496;2023-07-13T02:41:34;98846.28;;;13.82;78.55
54806;BME280;62866;55.776;37.496;2023-07-13T02:43:59;98858.44;;;13.85;78.62
54806;BME280;62866;55.776;37.496;2023-07-13T02:46:37;98858.22;;;13.86;78.70
54806;BME280;62866;55.776;37.496;2023-07-13T02:49:03;98833.19;;;13.74;78.63
54806;BME280;62866;55.776;37.496;2023-07-13T02:51:29;98838.22;;;13.82;78.52
54806;BME280;62866;55.776;37.496;2023-07-13T02:53:54;98851.44;;;13.84;78.68
54806;BME280;62866;55.776;37.496;2023-07-13T02:56:25;98857.03;;;13.82;78.72
54806;BME280;62866;55.776;37.496;2023-07-13T02:58:51;98858.00;;;13.88;78.65
54806;BME280;62866;55.776;37.496;2023-07-13T03:01:16;98861.00;;;13.91;78.67
54806;BME280;62866;55.776;37.496;2023-07-13T03:03:45;98863.69;;;13.91;78.63
54806;BME280;62866;55.776;37.496;2023-07-13T03:06:12;98850.50;;;13.90;78.73
54806;BME280;62866;55.776;37.496;2023-07-13T03:08:38;98849.22;;;13.92;78.70
54806;BME280;62866;55.776;37.496;2023-07-13T03:11:07;98850.97;;;13.98;78.56
54806;BME280;62866;55.776;37.496;2023-07-13T03:13:33;98846.41;;;13.99;78.46
54806;BME280;62866;55.776;37.496;2023-07-13T03:16:00;98849.91;;;13.99;78.36
54806;BME280;62866;55.776;37.496;2023-07-13T03:18:29;98849.91;;;13.99;78.12
54806;BME280;62866;55.776;37.496;2023-07-13T03:20:54;98845.13;;;14.01;78.24
54806;BME280;62866;55.776;37.496;2023-07-13T03:23:21;98856.47;;;14.03;78.39
54806;BME280;62866;55.776;37.496;2023-07-13T03:25:48;98860.53;;;14.06;78.40
54806;BME280;62866;55.776;37.496;2023-07-13T03:28:14;98864.88;;;14.07;78.27
54806;BME280;62866;55.776;37.496;2023-07-13T03:30:40;98862.19;;;14.07;78.29
54806;BME280;62866;55.776;37.496;2023-07-13T03:33:05;98846.41;;;13.99;78.04
54806;BME280;62866;55.776;37.496;2023-07-13T03:35:31;98870.03;;;14.09;77.95
54806;BME280;62866;55.776;37.496;2023-07-13T03:37:58;98864.66;;;14.09;77.96
54806;BME280;62866;55.776;37.496;2023-07-13T03:40:28;98859.88;;;14.11;77.95
54806;BME280;62866;55.776;37.496;2023-07-13T03:42:53;98869.22;;;14.20;78.01
54806;BME280;62866;55.776;37.496;2023-07-13T03:45:19;98848.06;;;14.12;77.86
54806;BME280;62866;55.776;37.496;2023-07-13T03:47:45;98843.28;;;14.14;77.71
54806;BME280;62866;55.776;37.496;2023-07-13T03:50:11;98871.41;;;14.34;77.84
54806;BME280;62866;55.776;37.496;2023-07-13T03:52:36;98855.88;;;14.36;77.81
54806;BME280;62866;55.776;37.496;2023-07-13T03:55:02;98856.00;;;14.41;77.56
54806;BME280;62866;55.776;37.496;2023-07-13T03:57:28;98856.97;;;14.47;77.28
54806;BME280;62866;55.776;37.496;2023-07-13T03:59:53;98832.28;;;14.38;77.17
54806;BME280;62866;55.776;37.496;2023-07-13T04:02:19;98847.44;;;14.56;76.98
54806;BME280;62866;55.776;37.496;2023-07-13T04:04:44;98857.13;;;14.69;76.65
54806;BME280;62866;55.776;37.496;2023-07-13T04:07:10;98854.22;;;14.70;77.02
54806;BME280;62866;55.776;37.496;2023-07-13T04:09:36;98854.31;;;14.75;76.63
54806;BME280;62866;55.776;37.496;2023-07-13T04:12:02;98863.78;;;14.78;76.75
54806;BME280;62866;55.776;37.496;2023-07-13T04:14:27;98871.63;;;14.79;76.82
54806;BME280;62866;55.776;37.496;2023-07-13T04:16:53;98870.00;;;14.78;76.67
54806;BME280;62866;55.776;37.496;2023-07-13T04:19:20;98878.97;;;14.84;76.56
54806;BME280;62866;55.776;37.496;2023-07-13T04:21:46;98871.13;;;14.82;76.63
54806;BME280;62866;55.776;37.496;2023-07-13T04:24:11;98873.25;;;14.80;76.61
54806;BME280;62866;55.776;37.496;2023-07-13T04:26:37;98865.31;;;14.74;76.62
54806;BME280;62866;55.776;37.496;2023-07-13T04:29:04;98867.53;;;14.77;76.70
54806;BME280;62866;55.776;37.496;2023-07-13T04:31:30;98856.41;;;14.73;76.99
54806;BME280;62866;55.776;37.496;2023-07-13T04:33:55;98867.75;;;14.75;76.96
54806;BME280;62866;55.776;37.496;2023-07-13T04:36:21;98864.00;;;14.76;76.93
54806;BME280;62866;55.776;37.496;2023-07-13T04:38:47;98855.34;;;14.74;76.95
54806;BME280;62866;55.776;37.496;2023-07-13T04:41:14;98849.16;;;14.74;76.96
54806;BME280;62866;55.776;37.496;2023-07-13T04:43:40;98848.47;;;14.78;77.03
54806;BME280;62866;55.776;37.496;2023-07-13T04:46:10;98836.41;;;14.81;76.52
54806;BME280;62866;55.776;37.496;2023-07-13T04:48:36;98840.59;;;14.89;76.31
54806;BME280;62866;55.776;37.496;2023-07-13T04:51:03;98854.81;;;15.01;76.54
54806;BME280;62866;55.776;37.496;2023-07-13T04:53:29;98849.53;;;15.06;76.45
54806;BME280;62866;55.776;37.496;2023-07-13T04:55:55;98850.44;;;15.11;76.16
54806;BME280;62866;55.776;37.496;2023-07-13T04:58:21;98840.72;;;15.10;75.82
54806;BME280;62866;55.776;37.496;2023-07-13T05:00:48;98862.09;;;15.29;75.79
54806;BME280;62866;55.776;37.496;2023-07-13T05:03:13;98863.09;;;15.39;75.69
54806;BME280;62866;55.776;37.496;2023-07-13T05:05:39;98866.41;;;15.58;75.37
54806;BME280;62866;55.776;37.496;2023-07-13T05:08:04;98841.50;;;15.68;74.33
54806;BME280;62866;55.776;37.496;2023-07-13T05:10:30;98865.84;;;16.06;73.63
54806;BME280;62866;55.776;37.496;2023-07-13T05:12:55;98863.34;;;16.38;73.15
54806;BME280;62866;55.776;37.496;2023-07-13T05:15:22;98857.34;;;16.53;72.33
54806;BME280;62866;55.776;37.496;2023-07-13T05:17:48;98868.56;;;16.83;71.83
54806;BME280;62866;55.776;37.496;2023-07-13T05:20:14;98860.91;;;16.97;71.25
54806;BME280;62866;55.776;37.496;2023-07-13T05:22:40;98873.44;;;17.08;70.90
54806;BME280;62866;55.776;37.496;2023-07-13T05:25:06;98868.22;;;17.23;70.55
54806;BME280;62866;55.776;37.496;2023-07-13T05:27:33;98868.53;;;17.27;70.58
54806;BME280;62866;55.776;37.496;2023-07-13T05:30:00;98863.13;;;17.27;69.91
54806;BME280;62866;55.776;37.496;2023-07-13T05:32:25;98865.31;;;17.30;70.14
54806;BME280;62866;55.776;37.496;2023-07-13T05:34:51;98858.56;;;17.32;69.82
54806;BME280;62866;55.776;37.496;2023-07-13T05:37:17;98856.44;;;17.34;69.30
54806;BME280;62866;55.776;37.496;2023-07-13T05:39:46;98860.28;;;17.38;69.34
54806;BME280;62866;55.776;37.496;2023-07-13T05:42:12;98857.69;;;17.49;69.29
54806;BME280;62866;55.776;37.496;2023-07-13T05:44:37;98852.09;;;17.60;68.97
54806;BME280;62866;55.776;37.496;2023-07-13T05:47:03;98848.72;;;17.75;68.41
54806;BME280;62866;55.776;37.496;2023-07-13T05:49:29;98862.16;;;17.97;67.75
54806;BME280;62866;55.776;37.496;2023-07-13T05:51:55;98841.63;;;18.01;67.47
54806;BME280;62866;55.776;37.496;2023-07-13T05:54:21;98865.31;;;18.20;67.09
54806;BME280;62866;55.776;37.496;2023-07-13T05:56:46;98852.53;;;18.11;66.57
54806;BME280;62866;55.776;37.496;2023-07-13T05:59:12;98853.84;;;18.03;67.00
54806;BME280;62866;55.776;37.496;2023-07-13T06:01:37;98849.47;;;17.97;67.15
54806;BME280;62866;55.776;37.496;2023-07-13T06:04:03;98851.63;;;18.00;66.86
54806;BME280;62866;55.776;37.496;2023-07-13T06:06:29;98815.47;;;17.74;66.40
54806;BME280;62866;55.776;37.496;2023-07-13T06:08:54;98834.81;;;17.93;66.39
54806;BME280;62866;55.776;37.496;2023-07-13T06:11:22;98846.44;;;17.94;66.26
54806;BME280;62866;55.776;37.496;2023-07-13T06:13:48;98849.81;;;18.06;66.12
54806;BME280;62866;55.776;37.496;2023-07-13T06:16:15;98833.09;;;18.19;65.83
54806;BME280;62866;55.776;37.496;2023-07-13T06:18:41;98835.38;;;18.37;65.30
54806;BME280;62866;55.776;37.496;2023-07-13T06:21:08;98830.81;;;18.43;64.77
54806;BME280;62866;55.776;37.496;2023-07-13T06:23:34;98844.06;;;18.39;65.27
54806;BME280;62866;55.776;37.496;2023-07-13T06:26:00;98828.97;;;18.48;65.10
54806;BME280;62866;55.776;37.496;2023-07-13T06:28:26;98823.34;;;18.60;64.60
54806;BME280;62866;55.776;37.496;2023-07-13T06:30:51;98821.50;;;18.66;64.25
54806;BME280;62866;55.776;37.496;2023-07-13T06:33:17;98817.41;;;18.68;63.67
54806;BME280;62866;55.776;37.496;2023-07-13T06:35:42;98811.75;;;18.75;63.90
54806;BME280;62866;55.776;37.496;2023-07-13T06:38:08;98809.34;;;18.83;63.27
54806;BME280;62866;55.776;37.496;2023-07-13T06:40:33;98822.88;;;18.83;63.20
54806;BME280;62866;55.776;37.496;2023-07-13T06:42:59;98818.28;;;18.79;63.52
54806;BME280;62866;55.776;37.496;2023-07-13T06:45:24;98832.88;;;18.73;63.68
54806;BME280;62866;55.776;37.496;2023-07-13T06:47:50;98832.75;;;18.47;63.95
54806;BME280;62866;55.776;37.496;2023-07-13T06:50:15;98833.66;;;18.21;64.46
54806;BME280;62866;55.776;37.496;2023-07-13T06:52:41;98826.47;;;18.00;64.61
54806;BME280;62866;55.776;37.496;2023-07-13T06:55:07;98839.38;;;17.88;65.19
54806;BME280;62866;55.776;37.496;2023-07-13T06:57:34;98808.38;;;17.63;65.00
54806;BME280;62866;55.776;37.496;2023-07-13T07:00:00;98834.72;;;17.78;65.35
54806;BME280;62866;55.776;37.496;2023-07-13T07:02:25;98829.81;;;17.75;65.62
54806;BME280;62866;55.776;37.496;2023-07-13T07:04:51;98819.47;;;17.67;65.79
54806;BME280;62866;55.776;37.496;2023-07-13T07:07:16;98826.81;;;17.71;66.12
54806;BME280;62866;55.776;37.496;2023-07-13T07:09:42;98809.28;;;17.74;65.38
54806;BME280;62866;55.776;37.496;2023-07-13T07:12:07;98817.53;;;17.94;64.68
54806;BME280;62866;55.776;37.496;2023-07-13T07:14:33;98820.06;;;18.11;63.97
54806;BME280;62866;55.776;37.496;2023-07-13T07:16:59;98810.94;;;18.22;63.61
54806;BME280;62866;55.776;37.496;2023-07-13T07:19:25;98786.03;;;18.15;63.52
54806;BME280;62866;55.776;37.496;2023-07-13T07:21:50;98807.50;;;18.32;62.74
54806;BME280;62866;55.776;37.496;2023-07-13T07:24:16;98817.69;;;18.25;62.95
54806;BME280;62866;55.776;37.496;2023-07-13T07:26:42;98826.88;;;18.18;62.90
54806;BME280;62866;55.776;37.496;2023-07-13T07:29:07;98836.28;;;18.11;63.37
54806;BME280;62866;55.776;37.496;2023-07-13T07:31:33;98831.63;;;18.01;63.80
54806;BME280;62866;55.776;37.496;2023-07-13T07:33:58;98839.47;;;17.98;63.88
54806;BME280;62866;55.776;37.496;2023-07-13T07:36:24;98837.75;;;17.87;63.71
54806;BME280;62866;55.776;37.496;2023-07-13T07:38:49;98843.13;;;17.81;64.04
54806;BME280;62866;55.776;37.496;2023-07-13T07:41:15;98840.84;;;17.68;64.79
54806;BME280;62866;55.776;37.496;2023-07-13T07:43:40;98843.78;;;17.67;65.02
54806;BME280;62866;55.776;37.496;2023-07-13T07:46:06;98839.66;;;17.59;64.81
54806;BME280;62866;55.776;37.496;2023-07-13T07:48:32;98855.38;;;17.62;64.90
54806;BME280;62866;55.776;37.496;2023-07-13T07:50:57;98851.50;;;17.53;65.72
54806;BME280;62866;55.776;37.496;2023-07-13T07:53:23;98846.88;;;17.49;66.06
54806;BME280;62866;55.776;37.496;2023-07-13T07:55:49;98841.13;;;17.40;65.89
54806;BME280;62866;55.776;37.496;2023-07-13T07:58:15;98850.78;;;17.36;65.62
54806;BME280;62866;55.776;37.496;2023-07-13T08:00:40;98854.31;;;17.36;65.77
54806;BME280;62866;55.776;37.496;2023-07-13T08:03:06;98850.28;;;17.39;66.59
54806;BME280;62866;55.776;37.496;2023-07-13T08:05:31;98846.31;;;17.47;66.16
54806;BME280;62866;55.776;37.496;2023-07-13T08:08:00;98842.00;;;17.51;66.55
54806;BME280;62866;55.776;37.496;2023-07-13T08:10:26;98834.91;;;17.44;66.61
54806;BME280;62866;55.776;37.496;2023-07-13T08:12:51;98855.75;;;17.49;66.85
54806;BME280;62866;55.776;37.496;2023-07-13T08:15:17;98848.78;;;17.53;66.29
54806;BME280;62866;55.776;37.496;2023-07-13T08:17:46;98853.97;;;17.60;65.59
54806;BME280;62866;55.776;37.496;2023-07-13T08:20:11;98852.69;;;17.62;66.24
54806;BME280;62866;55.776;37.496;2023-07-13T08:22:37;98850.47;;;17.59;66.34
54806;BME280;62866;55.776;37.496;2023-07-13T08:25:02;98846.56;;;17.45;66.86
54806;BME280;62866;55.776;37.496;2023-07-13T08:27:28;98849.72;;;17.37;66.42
54806;BME280;62866;55.776;37.496;2023-07-13T08:29:54;98843.34;;;17.21;67.31
54806;BME280;62866;55.776;37.496;2023-07-13T08:32:21;98849.81;;;17.20;67.89
54806;BME280;62866;55.776;37.496;2023-07-13T08:34:47;98842.44;;;17.16;67.79
54806;BME280;62866;55.776;37.496;2023-07-13T08:37:12;98836.41;;;17.03;68.26
54806;BME280;62866;55.776;37.496;2023-07-13T08:39:38;98838.78;;;17.00;68.32
54806;BME280;62866;55.776;37.496;2023-07-13T08:42:37;98847.53;;;17.07;68.69
54806;BME280;62866;55.776;37.496;2023-07-13T08:45:18;98851.28;;;17.06;68.59
54806;BME280;62866;55.776;37.496;2023-07-13T08:47:52;98847.44;;;17.02;68.85
54806;BME280;62866;55.776;37.496;2023-07-13T08:50:24;98855.56;;;17.02;70.06
54806;BME280;62866;55.776;37.496;2023-07-13T08:52:52;98861.81;;;17.07;69.83
54806;BME280;62866;55.776;37.496;2023-07-13T08:55:30;98858.38;;;17.12;70.04
54806;BME280;62866;55.776;37.496;2023-07-13T08:58:25;98869.28;;;17.22;70.45
54806;BME280;62866;55.776;37.496;2023-07-13T09:03:23;98876.41;;;17.06;71.73
54806;BME280;62866;55.776;37.496;2023-07-13T09:05:56;98880.09;;;17.00;72.52
54806;BME280;62866;55.776;37.496;2023-07-13T09:08:28;98878.16;;;16.96;70.94
54806;BME280;62866;55.776;37.496;2023-07-13T09:11:14;98871.44;;;16.77;72.90
54806;BME280;62866;55.776;37.496;2023-07-13T09:13:49;98882.50;;;16.75;73.85
54806;BME280;62866;55.776;37.496;2023-07-13T09:16:17;98862.34;;;16.61;74.11
54806;BME280;62866;55.776;37.496;2023-07-13T09:18:48;98890.28;;;16.72;74.30
54806;BME280;62866;55.776;37.496;2023-07-13T09:21:17;98889.91;;;16.63;74.81
54806;BME280;62866;55.776;37.496;2023-07-13T09:23:44;98893.31;;;16.58;75.22
54806;BME280;62866;55.776;37.496;2023-07-13T09:26:17;98878.94;;;16.53;75.66
54806;BME280;62866;55.776;37.496;2023-07-13T09:28:45;98877.28;;;16.52;76.03
54806;BME280;62866;55.776;37.496;2023-07-13T09:31:17;98869.25;;;16.35;76.42
54806;BME280;62866;55.776;37.496;2023-07-13T09:33:44;98879.22;;;16.35;76.78
54806;BME280;62866;55.776;37.496;2023-07-13T09:36:31;98884.13;;;16.38;77.14
54806;BME280;62866;55.776;37.496;2023-07-13T09:41:50;98885.69;;;16.17;77.75
54806;BME280;62866;55.776;37.496;2023-07-13T09:44:18;98892.00;;;16.06;78.74
54806;BME280;62866;55.776;37.496;2023-07-13T09:46:54;98889.78;;;15.86;80.35
54806;BME280;62866;55.776;37.496;2023-07-13T09:49:26;98890.03;;;15.84;81.11
54806;BME280;62866;55.776;37.496;2023-07-13T09:54:26;98890.19;;;15.78;80.31
54806;BME280;62866;55.776;37.496;2023-07-13T09:56:56;98887.25;;;15.79;80.69
54806;BME280;62866;55.776;37.496;2023-07-13T09:59:23;98886.09;;;15.75;80.84
54806;BME280;62866;55.776;37.496;2023-07-13T10:01:50;98873.53;;;15.64;81.60
54806;BME280;62866;55.776;37.496;2023-07-13T10:04:27;98886.25;;;15.69;81.82
54806;BME280;62866;55.776;37.496;2023-07-13T10:07:05;98879.72;;;15.65;81.53
54806;BME280;62866;55.776;37.496;2023-07-13T10:09:31;98882.66;;;15.63;81.69
54806;BME280;62866;55.776;37.496;2023-07-13T10:11:57;98879.38;;;15.61;81.57
54806;BME280;62866;55.776;37.496;2023-07-13T10:14:23;98884.78;;;15.61;82.18
54806;BME280;62866;55.776;37.496;2023-07-13T10:16:56;98891.22;;;15.60;82.79
54806;BME280;62866;55.776;37.496;2023-07-13T10:19:26;98884.13;;;15.54;82.36
54806;BME280;62866;55.776;37.496;2023-07-13T10:24:26;98892.06;;;15.49;82.45
54806;BME280;62866;55.776;37.496;2023-07-13T10:29:22;98884.53;;;15.34;83.10
54806;BME280;62866;55.776;37.496;2023-07-13T10:31:51;98882.81;;;15.28;83.45
54806;BME280;62866;55.776;37.496;2023-07-13T10:34:16;98893.47;;;15.23;83.29
54806;BME280;62866;55.776;37.496;2023-07-13T10:36:45;98895.38;;;15.23;83.80
54806;BME280;62866;55.776;37.496;2023-07-13T10:39:21;98890.91;;;15.16;84.57
54806;BME280;62866;55.776;37.496;2023-07-13T10:41:58;98897.34;;;15.15;84.62
54806;BME280;62866;55.776;37.496;2023-07-13T10:44:30;98899.97;;;15.10;84.56
54806;BME280;62866;55.776;37.496;2023-07-13T10:46:59;98905.81;;;15.07;84.80
54806;BME280;62866;55.776;37.496;2023-07-13T10:49:28;98880.97;;;14.89;84.93
54806;BME280;62866;55.776;37.496;2023-07-13T10:51:54;98899.06;;;14.93;85.28
54806;BME280;62866;55.776;37.496;2023-07-13T10:54:21;98902.72;;;14.87;85.23
54806;BME280;62866;55.776;37.496;2023-07-13T10:59:32;98907.78;;;14.72;86.15
54806;BME280;62866;55.776;37.496;2023-07-13T11:04:43;98899.94;;;14.70;86.94
54806;BME280;62866;55.776;37.496;2023-07-13T11:07:18;98899.59;;;14.67;86.41
54806;BME280;62866;55.776;37.496;2023-07-13T11:09:50;98890.03;;;14.59;87.40
54806;BME280;62866;55.776;37.496;2023-07-13T11:19:54;98901.22;;;14.68;87.56
54806;BME280;62866;55.776;37.496;2023-07-13T11:22:25;98899.38;;;14.68;87.70
54806;BME280;62866;55.776;37.496;2023-07-13T11:25:00;98890.25;;;14.69;88.07
54806;BME280;62866;55.776;37.496;2023-07-13T11:27:40;98898.91;;;14.71;88.01
54806;BME280;62866;55.776;37.496;2023-07-13T11:30:25;98893.97;;;14.68;88.31
54806;BME280;62866;55.776;37.496;2023-07-13T11:36:36;98890.47;;;14.68;88.66
54806;BME280;62866;55.776;37.496;2023-07-13T11:38:38;98884.75;;;14.64;89.25
54806;BME280;62866;55.776;37.496;2023-07-13T11:41:15;98890.00;;;14.71;89.46
54806;BME280;62866;55.776;37.496;2023-07-13T11:43:41;98873.03;;;14.70;89.60
54806;BME280;62866;55.776;37.496;2023-07-13T11:46:21;98877.25;;;14.66;89.63
54806;BME280;62866;55.776;37.496;2023-07-13T11:48:48;98879.25;;;14.71;89.92
54806;BME280;62866;55.776;37.496;2023-07-13T11:51:26;98875.28;;;14.62;89.85
54806;BME280;62866;55.776;37.496;2023-07-13T11:53:54;98894.22;;;14.67;89.69
54806;BME280;62866;55.776;37.496;2023-07-13T11:56:22;98881.13;;;14.59;90.21
54806;BME280;62866;55.776;37.496;2023-07-13T11:58:52;98874.22;;;14.63;90.69
54806;BME280;62866;55.776;37.496;2023-07-13T12:01:25;98889.78;;;14.72;90.60
54806;BME280;62866;55.776;37.496;2023-07-13T12:03:54;98876.19;;;14.67;90.43
54806;BME280;62866;55.776;37.496;2023-07-13T12:06:31;98905.56;;;14.69;90.41
54806;BME280;62866;55.776;37.496;2023-07-13T12:09:08;98885.81;;;14.63;90.57
54806;BME280;62866;55.776;37.496;2023-07-13T12:11:42;98886.50;;;14.70;90.77
54806;BME280;62866;55.776;37.496;2023-07-13T12:14:14;98890.47;;;14.68;90.89
54806;BME280;62866;55.776;37.496;2023-07-13T12:16:41;98897.25;;;14.70;91.16
54806;BME280;62866;55.776;37.496;2023-07-13T12:19:16;98901.00;;;14.69;91.25
54806;BME280;62866;55.776;37.496;2023-07-13T12:21:43;98898.78;;;14.66;91.32
54806;BME280;62866;55.776;37.496;2023-07-13T12:24:17;98892.94;;;14.69;92.16
54806;BME280;62866;55.776;37.496;2023-07-13T12:26:43;98885.31;;;14.66;92.20
54806;BME280;62866;55.776;37.496;2023-07-13T12:29:16;98883.81;;;14.70;91.85
54806;BME280;62866;55.776;37.496;2023-07-13T12:31:44;98876.09;;;14.62;92.33
54806;BME280;62866;55.776;37.496;2023-07-13T12:36:58;98886.88;;;14.62;92.26
54806;BME280;62866;55.776;37.496;2023-07-13T12:39:35;98876.09;;;14.62;92.37
54806;BME280;62866;55.776;37.496;2023-07-13T12:44:45;98873.88;;;14.59;92.56
54806;BME280;62866;55.776;37.496;2023-07-13T12:47:13;98875.41;;;14.55;93.11
54806;BME280;62866;55.776;37.496;2023-07-13T12:49:47;98887.22;;;14.54;93.59
54806;BME280;62866;55.776;37.496;2023-07-13T12:52:20;98870.97;;;14.49;93.49
54806;BME280;62866;55.776;37.496;2023-07-13T12:54:54;98862.22;;;14.42;93.72
54806;BME280;62866;55.776;37.496;2023-07-13T12:57:22;98860.09;;;14.44;93.62
54806;BME280;62866;55.776;37.496;2023-07-13T12:59:52;98865.03;;;14.47;93.82
54806;BME280;62866;55.776;37.496;2023-07-13T13:02:28;98870.41;;;14.47;93.65
54806;BME280;62866;55.776;37.496;2023-07-13T13:04:55;98859.19;;;14.38;93.60
54806;BME280;62866;55.776;37.496;2023-07-13T13:07:22;98852.59;;;14.34;93.95
54806;BME280;62866;55.776;37.496;2023-07-13T13:09:48;98839.06;;;14.29;93.70
54806;BME280;62866;55.776;37.496;2023-07-13T13:12:14;98862.69;;;14.39;94.05
54806;BME280;62866;55.776;37.496;2023-07-13T13:14:40;98875.31;;;14.38;94.22
54806;BME280;62866;55.776;37.496;2023-07-13T13:17:18;98887.31;;;14.36;94.55
54806;BME280;62866;55.776;37.496;2023-07-13T13:19:45;98876.34;;;14.37;94.17
54806;BME280;62866;55.776;37.496;2023-07-13T13:22:11;98872.63;;;14.38;94.49
54806;BME280;62866;55.776;37.496;2023-07-13T13:24:36;98855.50;;;14.33;94.76
54806;BME280;62866;55.776;37.496;2023-07-13T13:27:02;98867.31;;;14.32;94.78